createdAt,value
2019-01-12T00:01:40.118Z,84.05
2019-01-12T00:04:09.445Z,84.05
2019-01-12T00:06:38.584Z,84.20
2019-01-12T00:09:09.091Z,84.16
2019-01-12T00:11:38.268Z,84.21
2019-01-12T00:14:07.412Z,84.24
2019-01-12T00:16:36.583Z,84.31
2019-01-12T00:19:05.716Z,84.18
2019-01-12T00:21:35.332Z,84.12
2019-01-12T00:24:04.554Z,83.90
2019-01-12T00:26:33.700Z,83.94
2019-01-12T00:29:02.876Z,83.98
2019-01-12T00:31:32.013Z,84.00
2019-01-12T00:34:01.254Z,84.13
2019-01-12T00:36:30.826Z,84.04
2019-01-12T00:39:00.046Z,84.06
2019-01-12T00:41:29.189Z,84.02
2019-01-12T00:43:58.714Z,84.02
2019-01-12T00:46:27.962Z,83.89
2019-01-12T00:48:57.113Z,83.78
2019-01-12T00:51:26.725Z,83.75
2019-01-12T00:53:55.860Z,83.76
2019-01-12T00:56:24.983Z,83.83
2019-01-12T00:58:54.205Z,83.94
2019-01-12T01:01:23.381Z,83.83
2019-01-12T01:03:52.790Z,83.76
2019-01-12T01:06:21.979Z,83.84
2019-01-12T01:08:51.139Z,83.90
2019-01-12T01:11:20.278Z,84.15
2019-01-12T01:13:49.432Z,84.27
2019-01-12T01:16:18.575Z,84.32
2019-01-12T01:18:47.781Z,84.37
2019-01-12T01:21:16.932Z,84.54
2019-01-12T01:23:46.112Z,84.77
2019-01-12T01:26:15.306Z,84.82
2019-01-12T01:28:44.395Z,85.06
2019-01-12T01:31:13.601Z,85.28
2019-01-12T01:33:42.768Z,85.51
2019-01-12T01:36:11.909Z,85.64
2019-01-12T01:38:41.176Z,85.82
2019-01-12T01:41:10.364Z,85.86
2019-01-12T01:43:39.556Z,86.01
2019-01-12T01:46:08.695Z,86.08
2019-01-12T01:48:37.823Z,86.03
2019-01-12T01:51:07.036Z,86.04
2019-01-12T01:53:36.187Z,86.04
2019-01-12T01:56:07.390Z,86.05
2019-01-12T01:58:36.638Z,86.02
2019-01-12T02:01:05.881Z,86.00
2019-01-12T02:03:35.050Z,85.94
2019-01-12T02:06:04.215Z,85.87
2019-01-12T02:08:33.449Z,85.82
2019-01-12T02:11:02.645Z,85.82
2019-01-12T02:13:31.763Z,85.90
2019-01-12T02:16:02.183Z,85.72
2019-01-12T02:18:31.317Z,85.64
2019-01-12T02:21:00.595Z,85.62
2019-01-12T02:23:29.765Z,85.53
2019-01-12T02:25:58.976Z,85.49
2019-01-12T02:28:28.229Z,85.45
2019-01-12T02:30:57.361Z,85.28
2019-01-12T02:33:26.523Z,85.14
2019-01-12T02:35:55.691Z,85.01
2019-01-12T02:38:24.977Z,84.99
2019-01-12T02:40:54.106Z,85.05
2019-01-12T02:43:23.289Z,85.15
2019-01-12T02:45:52.447Z,85.19
2019-01-12T02:48:21.582Z,85.28
2019-01-12T02:50:50.791Z,85.24
2019-01-12T02:53:20.011Z,85.34
2019-01-12T02:55:49.166Z,85.29
2019-01-12T02:58:18.496Z,85.28
2019-01-12T03:00:47.680Z,85.23
2019-01-12T03:03:16.835Z,84.98
2019-01-12T03:05:46.054Z,84.97
2019-01-12T03:08:15.391Z,84.94
2019-01-12T03:10:44.530Z,84.86
2019-01-12T03:13:13.818Z,84.86
2019-01-12T03:15:43.007Z,84.67
2019-01-12T03:18:12.144Z,84.66
2019-01-12T03:20:41.313Z,84.69
2019-01-12T03:23:10.544Z,84.74
2019-01-12T03:25:40.004Z,84.41
2019-01-12T03:28:09.117Z,84.30
2019-01-12T03:30:38.260Z,84.34
2019-01-12T03:33:07.466Z,84.18
2019-01-12T03:35:36.688Z,84.22
2019-01-12T03:38:05.832Z,84.15
2019-01-12T03:40:35.215Z,84.21
2019-01-12T03:43:04.382Z,84.05
2019-01-12T03:45:33.639Z,84.10
2019-01-12T03:48:02.760Z,84.16
2019-01-12T03:50:32.105Z,84.19
2019-01-12T03:53:01.356Z,84.02
2019-01-12T03:55:30.987Z,83.98
2019-01-12T03:58:00.181Z,84.09
2019-01-12T04:00:29.453Z,84.03
2019-01-12T04:02:58.750Z,84.16
2019-01-12T04:05:27.901Z,84.43
2019-01-12T04:07:57.011Z,84.75
2019-01-12T04:10:26.317Z,85.04
2019-01-12T04:12:55.773Z,85.22
2019-01-12T04:15:24.939Z,85.34
2019-01-12T04:17:54.083Z,85.57
2019-01-12T04:20:23.344Z,85.62
2019-01-12T04:22:52.535Z,85.71
2019-01-12T04:25:21.859Z,85.82
2019-01-12T04:27:50.996Z,85.86
2019-01-12T04:30:21.944Z,85.88
2019-01-12T04:32:51.101Z,85.83
2019-01-12T04:35:20.409Z,85.85
2019-01-12T04:37:49.503Z,85.76
2019-01-12T04:40:19.781Z,85.77
2019-01-12T04:42:48.934Z,85.77
2019-01-12T04:45:18.397Z,84.61
2019-01-12T04:47:47.529Z,84.23
2019-01-12T04:50:20.511Z,84.12
2019-01-12T04:52:49.889Z,83.74
2019-01-12T04:55:19.023Z,83.72
2019-01-12T04:57:48.167Z,83.67
2019-01-12T05:00:22.049Z,83.59
2019-01-12T05:02:51.206Z,83.55
2019-01-12T05:05:20.341Z,83.54
2019-01-12T05:07:49.522Z,83.71
2019-01-12T05:10:18.709Z,83.99
2019-01-12T05:12:47.855Z,83.97
2019-01-12T05:15:17.114Z,84.10
2019-01-12T05:17:46.303Z,84.06
2019-01-12T05:20:20.361Z,83.87
2019-01-12T05:22:49.520Z,83.53
2019-01-12T05:25:18.742Z,83.56
2019-01-12T05:27:47.882Z,83.55
2019-01-12T05:30:26.320Z,83.55
2019-01-12T05:32:55.454Z,83.44
2019-01-12T05:35:24.981Z,83.25
2019-01-12T05:37:54.204Z,83.04
2019-01-12T05:40:23.436Z,82.69
2019-01-12T05:42:52.875Z,82.77
2019-01-12T05:45:22.041Z,82.70
2019-01-12T05:47:51.177Z,82.34
2019-01-12T05:50:20.582Z,82.13
2019-01-12T05:52:49.744Z,82.09
2019-01-12T05:55:19.589Z,82.44
2019-01-12T05:57:48.729Z,82.10
2019-01-12T06:00:22.247Z,81.99
2019-01-12T06:02:51.376Z,81.81
2019-01-12T06:05:20.817Z,81.48
2019-01-12T06:07:50.003Z,81.21
2019-01-12T06:10:19.568Z,80.83
2019-01-12T06:12:48.743Z,81.03
2019-01-12T06:15:18.571Z,80.85
2019-01-12T06:17:47.738Z,80.74
2019-01-12T06:20:20.400Z,80.67
2019-01-12T06:22:49.673Z,80.91
2019-01-12T06:25:18.842Z,80.97
2019-01-12T06:27:48.246Z,80.75
2019-01-12T06:30:22.150Z,80.81
2019-01-12T06:32:51.291Z,80.56
2019-01-12T06:35:20.425Z,80.66
2019-01-12T06:37:49.596Z,81.07
2019-01-12T06:40:19.693Z,81.28
2019-01-12T06:42:49.313Z,81.37
2019-01-12T06:45:19.200Z,81.35
2019-01-12T06:47:48.359Z,81.58
2019-01-12T06:50:20.866Z,81.59
2019-01-12T06:52:50.207Z,82.01
2019-01-12T06:55:19.450Z,82.08
2019-01-12T06:57:48.600Z,82.11
2019-01-12T07:00:22.429Z,82.13
2019-01-12T07:02:51.565Z,82.27
2019-01-12T07:05:20.709Z,82.53
2019-01-12T07:07:49.884Z,82.19
2019-01-12T07:10:21.224Z,82.17
2019-01-12T07:12:50.376Z,82.22
2019-01-12T07:15:19.544Z,82.11
2019-01-12T07:17:48.693Z,82.20
2019-01-12T07:20:18.477Z,82.26
2019-01-12T07:22:47.677Z,82.00
2019-01-12T07:25:17.308Z,81.98
2019-01-12T07:27:46.595Z,81.86
2019-01-12T07:30:22.530Z,81.61
2019-01-12T07:32:51.757Z,81.40
2019-01-12T07:35:21.263Z,81.32
2019-01-12T07:37:50.556Z,81.29
2019-01-12T07:40:19.671Z,80.82
2019-01-12T07:42:49.162Z,80.77
2019-01-12T07:45:18.297Z,80.68
2019-01-12T07:47:47.457Z,80.43
2019-01-12T07:50:16.907Z,80.50
2019-01-12T07:52:46.150Z,80.19
2019-01-12T07:55:15.347Z,80.43
2019-01-12T07:57:44.628Z,80.48
2019-01-12T08:00:24.198Z,79.88
2019-01-12T08:02:53.431Z,79.70
2019-01-12T08:05:23.124Z,79.52
2019-01-12T08:07:52.416Z,79.61
2019-01-12T08:10:26.974Z,79.48
2019-01-12T08:12:56.395Z,78.91
2019-01-12T08:15:25.630Z,78.92
2019-01-12T08:17:55.200Z,78.83
2019-01-12T08:20:24.353Z,78.77
2019-01-12T08:22:53.830Z,78.80
2019-01-12T08:25:23.136Z,78.33
2019-01-12T08:27:52.276Z,78.38
2019-01-12T08:30:23.265Z,78.54
2019-01-12T08:32:52.391Z,78.58
2019-01-12T08:35:21.546Z,78.73
2019-01-12T08:37:50.711Z,78.33
2019-01-12T08:40:19.882Z,78.95
2019-01-12T08:42:49.011Z,79.54
2019-01-12T08:45:18.537Z,79.93
2019-01-12T08:47:47.667Z,79.54
2019-01-12T08:50:21.051Z,79.21
2019-01-12T08:52:50.254Z,79.01
2019-01-12T08:55:19.535Z,79.04
2019-01-12T08:57:48.884Z,78.83
2019-01-12T09:00:22.247Z,78.80
2019-01-12T09:02:51.526Z,78.46
2019-01-12T09:05:21.691Z,78.75
2019-01-12T09:07:50.825Z,78.46
2019-01-12T09:10:21.772Z,78.20
2019-01-12T09:12:51.120Z,78.46
2019-01-12T09:15:20.756Z,78.64
2019-01-12T09:17:50.061Z,78.36
2019-01-12T09:20:20.537Z,78.49
2019-01-12T09:22:49.743Z,78.33
2019-01-12T09:25:18.958Z,78.30
2019-01-12T09:27:48.096Z,78.83
2019-01-12T09:30:23.898Z,79.82
2019-01-12T09:32:53.465Z,80.74
2019-01-12T09:35:22.604Z,81.72
2019-01-12T09:37:51.782Z,82.42
2019-01-12T09:40:24.366Z,82.91
2019-01-12T09:42:53.515Z,83.28
2019-01-12T09:45:23.122Z,83.56
2019-01-12T09:47:52.723Z,83.71
2019-01-12T09:50:23.149Z,83.92
2019-01-12T09:52:52.464Z,84.12
2019-01-12T09:55:21.619Z,84.21
2019-01-12T09:57:50.761Z,84.28
2019-01-12T10:00:28.921Z,84.69
2019-01-12T10:02:58.131Z,84.51
2019-01-12T10:05:27.325Z,84.55
2019-01-12T10:07:56.541Z,84.50
2019-01-12T10:10:25.795Z,84.50
2019-01-12T10:12:55.076Z,84.61
2019-01-12T10:15:24.205Z,84.58
2019-01-12T10:17:53.347Z,84.50
2019-01-12T10:20:22.638Z,84.47
2019-01-12T10:22:51.777Z,84.64
2019-01-12T10:25:21.008Z,84.80
2019-01-12T10:27:50.167Z,85.04
2019-01-12T10:30:26.937Z,85.18
2019-01-12T10:32:56.134Z,85.35
2019-01-12T10:35:25.382Z,85.36
2019-01-12T10:37:54.586Z,85.47
2019-01-12T10:40:23.860Z,85.61
2019-01-12T10:42:53.236Z,85.59
2019-01-12T10:45:24.045Z,85.58
2019-01-12T10:47:54.523Z,85.54
2019-01-12T10:50:34.987Z,85.53
2019-01-12T10:53:04.604Z,85.63
2019-01-12T10:55:33.760Z,85.66
2019-01-12T10:58:05.448Z,85.68
2019-01-12T11:00:38.615Z,85.72
2019-01-12T11:03:07.948Z,85.81
2019-01-12T11:05:37.102Z,85.85
2019-01-12T11:08:07.077Z,85.81
2019-01-12T11:10:36.412Z,85.86
2019-01-12T11:13:06.153Z,85.85
2019-01-12T11:15:35.550Z,85.91
2019-01-12T11:18:05.357Z,85.93
2019-01-12T11:20:34.643Z,85.93
2019-01-12T11:23:03.790Z,85.93
2019-01-12T11:25:32.948Z,86.02
2019-01-12T11:28:02.805Z,86.07
2019-01-12T11:30:32.314Z,86.12
2019-01-12T11:33:01.461Z,86.09
2019-01-12T11:35:30.614Z,86.12
2019-01-12T11:37:59.792Z,86.21
2019-01-12T11:40:28.977Z,86.18
2019-01-12T11:42:58.235Z,86.16
2019-01-12T11:45:27.423Z,86.17
2019-01-12T11:47:56.598Z,86.17
2019-01-12T11:50:25.815Z,86.20
2019-01-12T11:52:55.282Z,86.17
2019-01-12T11:55:24.412Z,86.21
2019-01-12T11:57:53.663Z,86.16
2019-01-12T12:00:28.298Z,86.18
2019-01-12T12:02:57.603Z,86.18
2019-01-12T12:05:26.744Z,86.14
2019-01-12T12:07:56.015Z,86.15
2019-01-12T12:10:25.294Z,86.22
2019-01-12T12:12:54.574Z,86.25
2019-01-12T12:15:24.102Z,86.29
2019-01-12T12:17:53.834Z,86.35
2019-01-12T12:20:27.797Z,86.44
2019-01-12T12:22:56.954Z,86.42
2019-01-12T12:25:26.127Z,86.44
2019-01-12T12:27:55.476Z,86.42
2019-01-12T12:30:26.762Z,86.43
2019-01-12T12:32:56.074Z,86.42
2019-01-12T12:35:25.265Z,86.48
2019-01-12T12:37:54.537Z,86.54
2019-01-12T12:40:24.246Z,86.51
2019-01-12T12:42:53.404Z,86.46
2019-01-12T12:45:25.427Z,86.53
2019-01-12T12:47:54.598Z,86.43
2019-01-12T12:50:23.882Z,86.46
2019-01-12T12:52:53.028Z,86.40
2019-01-12T12:55:22.285Z,86.37
2019-01-12T12:57:51.496Z,86.32
2019-01-12T13:00:24.146Z,86.41
2019-01-12T13:02:53.391Z,86.39
2019-01-12T13:05:22.795Z,86.39
2019-01-12T13:07:52.132Z,86.31
2019-01-12T13:10:25.135Z,86.13
2019-01-12T13:12:54.679Z,86.03
2019-01-12T13:15:23.840Z,86.09
2019-01-12T13:17:53.143Z,86.05
2019-01-12T13:20:23.801Z,86.08
2019-01-12T13:22:52.983Z,86.22
2019-01-12T13:25:22.125Z,86.31
2019-01-12T13:27:51.404Z,86.27
2019-01-12T13:30:25.534Z,86.08
2019-01-12T13:32:54.704Z,86.02
2019-01-12T13:35:24.048Z,85.87
2019-01-12T13:37:53.221Z,85.83
2019-01-12T13:40:24.697Z,85.58
2019-01-12T13:42:53.923Z,85.52
2019-01-12T13:45:23.188Z,85.54
2019-01-12T13:47:52.460Z,85.59
2019-01-12T13:50:23.789Z,85.38
2019-01-12T13:52:52.915Z,85.25
2019-01-12T13:55:22.209Z,85.01
2019-01-12T13:57:51.396Z,84.72
2019-01-12T14:00:32.866Z,84.78
2019-01-12T14:03:02.257Z,84.71
2019-01-12T14:05:31.507Z,84.41
2019-01-12T14:08:02.829Z,84.14
2019-01-12T14:10:32.065Z,84.02
2019-01-12T14:13:02.178Z,83.35
2019-01-12T14:15:31.332Z,83.38
2019-01-12T14:18:00.665Z,83.65
2019-01-12T14:20:32.313Z,83.13
2019-01-12T14:23:02.618Z,83.29
2019-01-12T14:25:31.895Z,83.47
2019-01-12T14:28:01.035Z,83.37
2019-01-12T14:30:30.350Z,83.37
2019-01-12T14:32:59.563Z,83.36
2019-01-12T14:35:28.762Z,83.12
2019-01-12T14:37:57.888Z,82.79
2019-01-12T14:40:27.107Z,82.38
2019-01-12T14:42:56.378Z,82.10
2019-01-12T14:45:27.828Z,81.70
2019-01-12T14:47:57.062Z,81.68
2019-01-12T14:50:26.502Z,81.04
2019-01-12T14:52:55.991Z,81.01
2019-01-12T14:55:25.431Z,81.04
2019-01-12T14:58:01.670Z,81.06
2019-01-12T15:00:27.618Z,80.62
2019-01-12T15:02:56.816Z,80.56
2019-01-12T15:05:28.298Z,80.49
2019-01-12T15:07:57.614Z,80.32
2019-01-12T15:10:26.906Z,80.27
2019-01-12T15:12:56.087Z,80.66
2019-01-12T15:15:25.320Z,80.64
2019-01-12T15:17:54.487Z,80.69
2019-01-12T15:20:25.984Z,80.54
2019-01-12T15:22:55.139Z,80.60
2019-01-12T15:25:24.399Z,80.62
2019-01-12T15:27:53.543Z,80.76
2019-01-12T15:30:25.052Z,80.93
2019-01-12T15:32:54.390Z,80.82
2019-01-12T15:35:24.849Z,80.80
2019-01-12T15:37:54.036Z,80.97
2019-01-12T15:40:24.894Z,81.22
2019-01-12T15:42:54.055Z,81.72
2019-01-12T15:45:24.584Z,81.81
2019-01-12T15:47:53.735Z,81.65
2019-01-12T15:50:26.321Z,81.84
2019-01-12T15:52:55.553Z,81.78
2019-01-12T15:55:24.896Z,81.73
2019-01-12T15:57:54.030Z,81.47
2019-01-12T16:00:28.189Z,81.51
2019-01-12T16:02:57.915Z,81.51
2019-01-12T16:05:27.965Z,81.37
2019-01-12T16:07:57.166Z,81.23
2019-01-12T16:10:26.544Z,81.05
2019-01-12T16:12:55.714Z,81.27
2019-01-12T16:15:26.542Z,80.91
2019-01-12T16:17:56.152Z,80.61
2019-01-12T16:20:37.340Z,80.80
2019-01-12T16:23:06.606Z,80.68
2019-01-12T16:25:35.752Z,80.38
2019-01-12T16:28:04.889Z,80.35
2019-01-12T16:30:34.285Z,80.34
2019-01-12T16:33:03.843Z,80.35
2019-01-12T16:35:33.148Z,80.25
2019-01-12T16:38:03.320Z,80.39
2019-01-12T16:40:32.559Z,80.43
2019-01-12T16:43:02.604Z,80.70
2019-01-12T16:45:31.915Z,80.73
2019-01-12T16:48:02.230Z,80.76
2019-01-12T16:50:31.377Z,80.72
2019-01-12T16:53:00.560Z,80.95
2019-01-12T16:55:29.740Z,80.96
2019-01-12T16:57:58.896Z,80.96
2019-01-12T17:00:30.114Z,81.26
2019-01-12T17:03:00.031Z,81.35
2019-01-12T17:05:29.392Z,81.03
2019-01-12T17:07:58.574Z,80.68
2019-01-12T17:10:28.058Z,80.76
2019-01-12T17:12:57.257Z,80.94
2019-01-12T17:15:26.618Z,81.24
2019-01-12T17:17:55.817Z,81.33
2019-01-12T17:20:27.126Z,81.48
2019-01-12T17:22:58.804Z,81.50
2019-01-12T17:25:28.030Z,81.27
2019-01-12T17:27:57.224Z,81.34
2019-01-12T17:30:26.626Z,81.29
2019-01-12T17:32:55.815Z,81.51
2019-01-12T17:35:25.226Z,81.66
2019-01-12T17:37:54.394Z,81.75
2019-01-12T17:40:25.246Z,81.89
2019-01-12T17:42:54.396Z,81.85
2019-01-12T17:45:25.330Z,82.10
2019-01-12T17:47:54.520Z,82.44
2019-01-12T17:50:25.656Z,82.46
2019-01-12T17:52:55.078Z,82.76
2019-01-12T17:55:26.138Z,82.98
2019-01-12T17:57:55.317Z,83.17
2019-01-12T18:00:51.741Z,83.32
2019-01-12T18:03:20.986Z,83.57
2019-01-12T18:05:50.393Z,83.66
2019-01-12T18:08:19.528Z,83.80
2019-01-12T18:10:48.807Z,83.98
2019-01-12T18:13:20.249Z,84.07
2019-01-12T18:15:49.418Z,84.17
2019-01-12T18:18:18.594Z,84.23
2019-01-12T18:20:47.736Z,84.36
2019-01-12T18:23:16.862Z,84.56
2019-01-12T18:25:46.548Z,84.47
2019-01-12T18:28:15.821Z,84.50
2019-01-12T18:30:44.988Z,84.39
2019-01-12T18:33:14.192Z,84.27
2019-01-12T18:35:43.376Z,83.16
2019-01-12T18:38:12.536Z,83.15
2019-01-12T18:40:41.709Z,83.52
2019-01-12T18:43:10.896Z,83.78
2019-01-12T18:45:40.387Z,84.20
2019-01-12T18:48:09.743Z,84.68
2019-01-12T18:50:38.959Z,84.97
2019-01-12T18:53:08.276Z,85.21
2019-01-12T18:55:37.557Z,85.31
2019-01-12T18:58:06.795Z,85.36
2019-01-12T19:00:36.027Z,85.32
2019-01-12T19:03:05.495Z,85.25
2019-01-12T19:05:34.630Z,85.17
2019-01-12T19:08:04.285Z,84.88
2019-01-12T19:10:33.534Z,84.76
2019-01-12T19:13:03.072Z,84.63
2019-01-12T19:15:32.757Z,84.65
2019-01-12T19:18:01.907Z,84.60
2019-01-12T19:20:31.164Z,84.64
2019-01-12T19:23:00.456Z,84.70
2019-01-12T19:25:29.699Z,84.56
2019-01-12T19:27:58.904Z,84.55
2019-01-12T19:30:28.158Z,84.60
2019-01-12T19:32:57.328Z,84.66
2019-01-12T19:35:26.556Z,84.68
2019-01-12T19:37:55.907Z,84.55
2019-01-12T19:40:26.262Z,84.49
2019-01-12T19:42:55.779Z,84.50
2019-01-12T19:45:24.979Z,84.56
2019-01-12T19:47:54.308Z,84.60
2019-01-12T19:50:27.643Z,84.50
2019-01-12T19:52:57.482Z,84.57
2019-01-12T19:55:26.796Z,84.50
2019-01-12T19:57:56.032Z,84.27
2019-01-12T20:00:33.029Z,84.39
2019-01-12T20:03:03.930Z,84.44
2019-01-12T20:05:33.206Z,84.44
2019-01-12T20:08:02.366Z,84.45
2019-01-12T20:10:31.647Z,84.26
2019-01-12T20:13:02.279Z,84.25
2019-01-12T20:15:31.916Z,84.38
2019-01-12T20:18:02.265Z,84.12
2019-01-12T20:20:34.737Z,84.03
2019-01-12T20:23:04.127Z,83.82
2019-01-12T20:25:33.911Z,83.78
2019-01-12T20:28:14.966Z,83.92
2019-01-12T20:31:27.179Z,83.78
2019-01-12T20:34:08.215Z,83.77
2019-01-12T20:37:06.318Z,83.77
2019-01-12T20:39:57.925Z,83.84
2019-01-12T20:43:08.131Z,83.78
2019-01-12T20:46:04.262Z,83.70
2019-01-12T20:48:59.253Z,83.60
2019-01-12T20:51:59.238Z,83.53
2019-01-12T20:55:17.101Z,83.53
2019-01-12T20:58:33.346Z,83.55
2019-01-12T21:01:40.830Z,83.71
2019-01-12T21:04:55.629Z,83.54
2019-01-12T21:08:20.993Z,83.49
2019-01-12T21:11:43.427Z,83.76
2019-01-12T21:14:43.140Z,83.74
2019-01-12T21:17:14.743Z,83.71
2019-01-12T21:19:48.055Z,83.82
2019-01-12T21:22:15.137Z,83.85
2019-01-12T21:24:44.397Z,83.84
2019-01-12T21:27:13.782Z,83.68
2019-01-12T21:29:43.043Z,83.49
2019-01-12T21:32:12.318Z,83.57
2019-01-12T21:34:41.452Z,83.52
2019-01-12T21:37:11.004Z,83.42
2019-01-12T21:39:40.167Z,83.58
2019-01-12T21:42:09.328Z,83.71
2019-01-12T21:44:38.491Z,83.83
2019-01-12T21:47:07.639Z,83.87
2019-01-12T21:49:36.811Z,84.03
2019-01-12T21:52:05.993Z,84.15
2019-01-12T21:54:35.136Z,83.97
2019-01-12T21:57:04.588Z,83.94
2019-01-12T21:59:33.871Z,83.89
2019-01-12T22:02:03.379Z,83.98
2019-01-12T22:04:32.693Z,83.85
2019-01-12T22:07:04.834Z,83.84
2019-01-12T22:09:34.114Z,83.86
2019-01-12T22:12:03.384Z,83.88
2019-01-12T22:14:32.629Z,83.75
2019-01-12T22:17:01.915Z,83.67
2019-01-12T22:19:31.203Z,83.46
2019-01-12T22:22:00.417Z,83.33
2019-01-12T22:24:29.548Z,83.33
2019-01-12T22:26:58.714Z,83.25
2019-01-12T22:29:27.952Z,83.28
2019-01-12T22:31:57.370Z,83.07
2019-01-12T22:34:26.558Z,83.13
2019-01-12T22:36:55.699Z,83.11
2019-01-12T22:39:24.866Z,83.04
2019-01-12T22:41:54.047Z,82.92
2019-01-12T22:44:23.169Z,82.81
2019-01-12T22:46:52.341Z,82.78
2019-01-12T22:49:21.522Z,82.68
2019-01-12T22:51:51.077Z,82.48
2019-01-12T22:54:20.267Z,82.35
2019-01-12T22:56:49.592Z,82.38
2019-01-12T22:59:18.866Z,82.44
2019-01-12T23:01:54.637Z,82.36
2019-01-12T23:04:25.756Z,82.11
2019-01-12T23:06:55.022Z,82.60
2019-01-12T23:09:24.673Z,82.79
2019-01-12T23:11:53.863Z,82.89
2019-01-12T23:14:23.013Z,82.87
2019-01-12T23:16:52.164Z,82.91
2019-01-12T23:19:21.386Z,83.04
2019-01-12T23:21:50.627Z,82.78
2019-01-12T23:24:19.786Z,82.41
2019-01-12T23:26:48.930Z,82.56
2019-01-12T23:29:18.065Z,82.37
2019-01-12T23:31:47.236Z,82.17
2019-01-12T23:34:16.512Z,82.20
2019-01-12T23:36:45.638Z,82.25
2019-01-12T23:39:14.799Z,81.71
2019-01-12T23:41:43.962Z,81.90
2019-01-12T23:44:15.044Z,82.11
2019-01-12T23:46:44.039Z,82.21
2019-01-12T23:49:13.193Z,82.28
2019-01-12T23:51:42.421Z,81.88
2019-01-12T23:54:11.598Z,81.94
2019-01-12T23:56:40.744Z,81.90
2019-01-12T23:59:09.888Z,82.11
